createdAt,value
2019-04-27T00:02:00.032Z,16.00
2019-04-27T00:04:19.314Z,15.90
2019-04-27T00:06:25.813Z,15.90
2019-04-27T00:08:39.133Z,15.90
2019-04-27T00:13:06.539Z,15.80
2019-04-27T00:15:14.544Z,15.80
2019-04-27T00:17:41.273Z,15.80
2019-04-27T00:19:35.633Z,15.70
2019-04-27T00:21:47.767Z,15.70
2019-04-27T00:23:53.210Z,15.70
2019-04-27T00:25:58.282Z,15.70
2019-04-27T00:28:03.526Z,15.60
2019-04-27T00:30:09.579Z,15.60
2019-04-27T00:32:14.398Z,15.60
2019-04-27T00:34:19.256Z,15.60
2019-04-27T00:36:25.725Z,15.60
2019-04-27T00:38:37.875Z,15.60
2019-04-27T00:40:44.289Z,15.60
2019-04-27T00:42:49.117Z,15.50
2019-04-27T00:44:54.179Z,15.50
2019-04-27T00:46:59.052Z,15.50
2019-04-27T00:49:03.854Z,15.50
2019-04-27T00:51:08.678Z,15.50
2019-04-27T00:53:13.549Z,15.50
2019-04-27T00:55:18.422Z,15.50
2019-04-27T00:57:41.283Z,15.40
2019-04-27T00:59:47.703Z,15.40
2019-04-27T01:02:03.817Z,15.40
2019-04-27T01:04:23.744Z,15.40
2019-04-27T01:06:29.099Z,15.40
2019-04-27T01:08:34.313Z,15.30
2019-04-27T01:10:40.118Z,15.30
2019-04-27T01:12:44.816Z,15.30
2019-04-27T01:14:49.921Z,15.30
2019-04-27T01:16:54.666Z,15.30
2019-04-27T01:18:59.368Z,15.30
2019-04-27T01:21:05.794Z,15.20
2019-04-27T01:23:10.771Z,15.20
2019-04-27T01:25:15.820Z,15.20
2019-04-27T01:27:22.153Z,15.20
2019-04-27T01:29:29.110Z,15.20
2019-04-27T01:31:33.988Z,15.20
2019-04-27T01:33:39.005Z,15.10
2019-04-27T01:35:44.876Z,15.10
2019-04-27T01:37:49.669Z,15.10
2019-04-27T01:39:54.446Z,15.10
2019-04-27T01:41:59.190Z,15.10
2019-04-27T01:44:16.455Z,15.10
2019-04-27T01:46:21.142Z,15.00
2019-04-27T01:48:25.951Z,15.00
2019-04-27T01:50:30.726Z,15.10
2019-04-27T01:52:35.424Z,15.10
2019-04-27T01:54:41.066Z,15.00
2019-04-27T01:56:45.956Z,15.00
2019-04-27T01:58:50.680Z,15.00
2019-04-27T02:01:13.888Z,15.00
2019-04-27T02:03:26.038Z,15.00
2019-04-27T02:05:35.403Z,15.00
2019-04-27T02:07:41.922Z,14.90
2019-04-27T02:09:46.605Z,14.90
2019-04-27T02:11:52.476Z,14.90
2019-04-27T02:13:57.246Z,14.90
2019-04-27T02:16:03.717Z,14.90
2019-04-27T02:18:09.453Z,14.90
2019-04-27T02:20:15.328Z,14.90
2019-04-27T02:22:20.091Z,14.90
2019-04-27T02:24:24.809Z,14.90
2019-04-27T02:26:29.984Z,14.90
2019-04-27T02:28:37.463Z,14.90
2019-04-27T02:30:43.912Z,14.90
2019-04-27T02:33:06.824Z,14.90
2019-04-27T02:35:12.445Z,14.90
2019-04-27T02:37:19.766Z,14.90
2019-04-27T02:39:23.549Z,14.90
2019-04-27T02:41:29.696Z,14.90
2019-04-27T02:43:36.306Z,14.90
2019-04-27T02:45:41.079Z,14.80
2019-04-27T02:47:45.856Z,14.90
2019-04-27T02:49:51.067Z,14.80
2019-04-27T02:51:59.518Z,14.80
2019-04-27T02:54:04.069Z,14.80
2019-04-27T02:56:10.329Z,14.90
2019-04-27T02:58:15.369Z,14.80
2019-04-27T03:00:20.620Z,14.90
2019-04-27T03:02:33.065Z,14.80
2019-04-27T03:04:39.957Z,14.90
2019-04-27T03:06:44.237Z,14.90
2019-04-27T03:08:53.340Z,14.80
2019-04-27T03:10:55.498Z,14.80
2019-04-27T03:13:16.931Z,14.80
2019-04-27T03:15:30.580Z,14.80
2019-04-27T03:17:40.132Z,14.80
2019-04-27T03:19:46.581Z,14.80
2019-04-27T03:22:11.153Z,14.80
2019-04-27T03:24:15.862Z,14.70
2019-04-27T03:26:22.609Z,14.70
2019-04-27T03:28:29.668Z,14.70
2019-04-27T03:30:35.962Z,14.70
2019-04-27T03:32:43.170Z,14.70
2019-04-27T03:34:46.644Z,14.70
2019-04-27T03:36:51.611Z,14.70
2019-04-27T03:38:56.616Z,14.60
2019-04-27T03:41:01.372Z,14.60
2019-04-27T03:43:09.397Z,14.60
2019-04-27T03:45:14.129Z,14.50
2019-04-27T03:47:20.485Z,14.50
2019-04-27T03:49:34.742Z,14.50
2019-04-27T03:51:33.548Z,14.40
2019-04-27T03:53:39.955Z,14.40
2019-04-27T03:55:50.152Z,14.40
2019-04-27T03:57:59.949Z,14.30
2019-04-27T04:00:10.098Z,14.30
2019-04-27T04:02:15.293Z,14.30
2019-04-27T04:04:19.983Z,14.20
2019-04-27T04:06:24.719Z,14.30
2019-04-27T04:08:30.697Z,14.30
2019-04-27T04:10:39.166Z,14.20
2019-04-27T04:12:50.044Z,14.20
2019-04-27T04:14:54.931Z,14.20
2019-04-27T04:17:02.893Z,14.20
2019-04-27T04:19:09.997Z,14.20
2019-04-27T04:21:14.853Z,14.20
2019-04-27T04:23:20.468Z,14.20
2019-04-27T04:25:27.173Z,14.10
2019-04-27T04:27:31.940Z,14.10
2019-04-27T04:29:39.317Z,14.10
2019-04-27T04:31:43.142Z,14.10
2019-04-27T04:33:49.270Z,14.10
2019-04-27T04:35:55.854Z,14.10
2019-04-27T04:38:00.650Z,14.00
2019-04-27T04:40:06.097Z,14.00
2019-04-27T04:42:12.519Z,14.00
2019-04-27T04:44:25.101Z,14.00
2019-04-27T04:46:31.525Z,14.00
2019-04-27T04:48:36.351Z,14.00
2019-04-27T04:50:41.088Z,14.00
2019-04-27T04:52:45.855Z,14.00
2019-04-27T04:54:50.609Z,14.00
2019-04-27T04:56:56.372Z,14.00
2019-04-27T04:59:01.074Z,14.00
2019-04-27T05:01:05.877Z,14.00
2019-04-27T05:03:10.641Z,14.00
2019-04-27T05:05:15.401Z,14.00
2019-04-27T05:07:20.245Z,14.00
2019-04-27T05:09:24.943Z,14.00
2019-04-27T05:11:29.878Z,14.00
2019-04-27T05:13:34.722Z,14.00
2019-04-27T05:15:39.556Z,14.00
2019-04-27T05:17:44.373Z,14.00
2019-04-27T05:19:49.677Z,14.00
2019-04-27T05:21:54.381Z,14.00
2019-04-27T05:24:00.780Z,14.00
2019-04-27T05:26:05.635Z,14.00
2019-04-27T05:28:10.325Z,14.00
2019-04-27T05:30:15.109Z,14.00
2019-04-27T05:32:20.690Z,14.00
2019-04-27T05:34:25.588Z,14.00
2019-04-27T05:36:30.349Z,14.00
2019-04-27T05:38:35.065Z,14.00
2019-04-27T05:40:40.011Z,14.00
2019-04-27T05:42:48.911Z,14.00
2019-04-27T05:45:02.897Z,13.90
2019-04-27T05:47:15.243Z,13.90
2019-04-27T05:49:30.889Z,13.90
2019-04-27T05:51:37.089Z,13.90
2019-04-27T05:53:42.071Z,13.90
2019-04-27T05:55:46.769Z,13.90
2019-04-27T05:57:51.487Z,13.90
2019-04-27T06:00:01.047Z,13.90
2019-04-27T06:02:04.215Z,13.80
2019-04-27T06:04:09.205Z,13.90
2019-04-27T06:06:14.003Z,13.90
2019-04-27T06:08:20.949Z,13.90
2019-04-27T06:10:25.200Z,13.90
2019-04-27T06:12:29.992Z,13.80
2019-04-27T06:14:34.697Z,13.90
2019-04-27T06:16:39.556Z,13.90
2019-04-27T06:18:44.325Z,13.90
2019-04-27T06:20:55.358Z,13.90
2019-04-27T06:22:55.412Z,13.90
2019-04-27T06:25:00.520Z,13.90
2019-04-27T06:27:05.392Z,13.80
2019-04-27T06:29:10.158Z,13.90
2019-04-27T06:31:14.882Z,13.80
2019-04-27T06:33:29.530Z,13.90
2019-04-27T06:35:25.955Z,13.90
2019-04-27T06:37:30.685Z,13.90
2019-04-27T06:39:35.370Z,13.90
2019-04-27T06:41:40.279Z,13.80
2019-04-27T06:43:45.093Z,13.90
2019-04-27T06:45:49.783Z,13.90
2019-04-27T06:47:54.544Z,13.90
2019-04-27T06:49:59.272Z,13.80
2019-04-27T06:52:03.958Z,13.80
2019-04-27T06:54:09.270Z,13.90
2019-04-27T06:56:14.138Z,13.90
2019-04-27T06:58:19.962Z,13.90
2019-04-27T07:00:25.032Z,13.90
2019-04-27T07:02:29.805Z,13.90
2019-04-27T07:04:36.234Z,13.90
2019-04-27T07:06:52.832Z,13.90
2019-04-27T07:08:47.375Z,13.80
2019-04-27T07:10:52.103Z,13.90
2019-04-27T07:12:56.883Z,13.90
2019-04-27T07:15:01.710Z,13.90
2019-04-27T07:17:06.497Z,13.80
2019-04-27T07:19:11.258Z,13.80
2019-04-27T07:21:22.791Z,13.70
2019-04-27T07:23:25.145Z,13.70
2019-04-27T07:25:29.903Z,13.70
2019-04-27T07:27:34.594Z,13.60
2019-04-27T07:29:44.722Z,13.60
2019-04-27T07:31:45.705Z,13.50
2019-04-27T07:33:50.947Z,13.50
2019-04-27T07:35:55.736Z,13.50
2019-04-27T07:38:00.509Z,13.40
2019-04-27T07:40:08.946Z,13.40
2019-04-27T07:42:13.985Z,13.40
2019-04-27T07:44:20.388Z,13.40
2019-04-27T07:46:28.118Z,13.40
2019-04-27T07:48:31.592Z,13.40
2019-04-27T07:50:36.291Z,13.40
2019-04-27T07:52:41.025Z,13.40
2019-04-27T07:54:45.807Z,13.40
2019-04-27T07:56:50.508Z,13.40
2019-04-27T07:58:55.308Z,13.50
2019-04-27T08:00:59.993Z,13.50
2019-04-27T08:03:06.445Z,13.50
2019-04-27T08:05:11.132Z,13.40
2019-04-27T08:07:16.019Z,13.50
2019-04-27T08:09:20.785Z,13.40
2019-04-27T08:11:25.553Z,13.50
2019-04-27T08:13:30.370Z,13.50
2019-04-27T08:15:36.173Z,13.50
2019-04-27T08:17:42.953Z,13.50
2019-04-27T08:19:47.283Z,13.50
2019-04-27T08:21:52.067Z,13.50
2019-04-27T08:23:58.576Z,13.60
2019-04-27T08:26:04.813Z,13.60
2019-04-27T08:28:14.519Z,13.60
2019-04-27T08:30:27.067Z,13.60
2019-04-27T08:32:41.351Z,13.60
2019-04-27T08:34:45.717Z,13.70
2019-04-27T08:36:50.846Z,13.60
2019-04-27T08:38:55.683Z,13.60
2019-04-27T08:41:00.386Z,13.70
2019-04-27T08:43:05.173Z,13.70
2019-04-27T08:45:10.561Z,13.80
2019-04-27T08:47:15.469Z,13.90
2019-04-27T08:49:20.240Z,13.90
2019-04-27T08:51:25.033Z,14.00
2019-04-27T08:53:29.947Z,14.10
2019-04-27T08:55:34.707Z,14.10
2019-04-27T08:57:39.896Z,14.20
2019-04-27T08:59:44.678Z,14.20
2019-04-27T09:01:51.133Z,14.30
2019-04-27T09:03:55.830Z,14.30
2019-04-27T09:06:00.641Z,14.40
2019-04-27T09:08:19.135Z,14.50
2019-04-27T09:10:43.735Z,14.50
2019-04-27T09:12:53.680Z,14.60
2019-04-27T09:15:02.993Z,14.60
2019-04-27T09:17:21.604Z,14.50
2019-04-27T09:19:40.212Z,14.60
2019-04-27T09:22:13.594Z,14.50
2019-04-27T09:24:10.885Z,14.50
2019-04-27T09:26:15.979Z,14.50
2019-04-27T09:28:21.857Z,14.50
2019-04-27T09:30:26.977Z,14.50
2019-04-27T09:32:31.671Z,14.50
2019-04-27T09:34:36.690Z,14.50
2019-04-27T09:36:41.537Z,14.40
2019-04-27T09:38:46.541Z,14.40
2019-04-27T09:40:51.403Z,14.40
2019-04-27T09:42:57.221Z,14.40
2019-04-27T09:45:02.058Z,14.30
2019-04-27T09:47:08.588Z,14.30
2019-04-27T09:49:13.453Z,14.30
2019-04-27T09:51:19.247Z,14.40
2019-04-27T09:53:27.023Z,14.30
2019-04-27T09:55:33.503Z,14.30
2019-04-27T09:57:38.260Z,14.30
2019-04-27T09:59:43.182Z,14.30
2019-04-27T10:01:47.918Z,14.30
2019-04-27T10:03:52.697Z,14.30
2019-04-27T10:05:57.398Z,14.30
2019-04-27T10:08:02.422Z,14.40
2019-04-27T10:10:26.908Z,14.40
2019-04-27T10:12:34.222Z,14.40
2019-04-27T10:14:38.110Z,14.40
2019-04-27T10:16:42.821Z,14.40
2019-04-27T10:18:47.580Z,14.50
2019-04-27T10:20:59.789Z,14.50
2019-04-27T10:22:58.693Z,14.50
2019-04-27T10:25:06.866Z,14.50
2019-04-27T10:27:11.582Z,14.50
2019-04-27T10:29:16.283Z,14.50
2019-04-27T10:31:21.202Z,14.60
2019-04-27T10:33:26.876Z,14.60
2019-04-27T10:35:31.906Z,14.60
2019-04-27T10:37:36.686Z,14.60
2019-04-27T10:39:41.384Z,14.60
2019-04-27T10:41:46.428Z,14.60
2019-04-27T10:43:52.412Z,14.60
2019-04-27T10:45:57.192Z,14.60
2019-04-27T10:48:01.966Z,14.70
2019-04-27T10:50:06.770Z,14.70
2019-04-27T10:52:11.556Z,14.70
2019-04-27T10:54:16.328Z,14.80
2019-04-27T10:56:21.056Z,14.80
2019-04-27T10:58:27.351Z,14.80
2019-04-27T11:00:33.895Z,14.90
2019-04-27T11:02:38.693Z,14.90
2019-04-27T11:04:47.947Z,15.00
2019-04-27T11:06:54.360Z,15.10
2019-04-27T11:08:59.157Z,15.10
2019-04-27T11:11:03.862Z,15.20
2019-04-27T11:13:08.638Z,15.20
2019-04-27T11:15:13.381Z,15.30
2019-04-27T11:17:18.147Z,15.30
2019-04-27T11:19:22.838Z,15.30
2019-04-27T11:21:27.644Z,15.40
2019-04-27T11:23:32.398Z,15.40
2019-04-27T11:25:37.158Z,15.40
2019-04-27T11:27:41.966Z,15.50
2019-04-27T11:29:46.889Z,15.50
2019-04-27T11:31:53.177Z,15.50
2019-04-27T11:33:58.343Z,15.50
2019-04-27T11:36:20.979Z,15.50
2019-04-27T11:38:26.696Z,15.50
2019-04-27T11:40:31.535Z,15.50
2019-04-27T11:42:36.306Z,15.50
2019-04-27T11:44:41.071Z,15.50
2019-04-27T11:46:47.474Z,15.50
2019-04-27T11:48:53.811Z,15.50
2019-04-27T11:50:58.639Z,15.50
2019-04-27T11:53:03.435Z,15.60
2019-04-27T11:55:08.446Z,15.60
2019-04-27T11:57:13.231Z,15.60
2019-04-27T11:59:18.009Z,15.60
2019-04-27T12:01:24.425Z,15.60
2019-04-27T12:03:29.208Z,15.70
2019-04-27T12:05:33.929Z,15.70
2019-04-27T12:07:38.782Z,15.70
2019-04-27T12:09:43.495Z,15.70
2019-04-27T12:11:48.276Z,15.70
2019-04-27T12:13:52.993Z,15.70
2019-04-27T12:15:57.743Z,15.70
2019-04-27T12:18:02.469Z,15.70
2019-04-27T12:20:07.664Z,15.70
2019-04-27T12:22:12.438Z,15.80
2019-04-27T12:24:17.949Z,15.80
2019-04-27T12:26:33.618Z,15.80
2019-04-27T12:28:42.946Z,15.80
2019-04-27T12:31:09.114Z,15.80
2019-04-27T12:33:13.969Z,15.90
2019-04-27T12:35:18.797Z,15.90
2019-04-27T12:37:23.601Z,15.90
2019-04-27T12:39:28.339Z,15.90
2019-04-27T12:41:33.077Z,16.00
2019-04-27T12:43:37.861Z,16.00
2019-04-27T12:45:43.723Z,16.00
2019-04-27T12:47:49.121Z,16.00
2019-04-27T12:49:53.907Z,16.00
2019-04-27T12:51:58.717Z,16.00
2019-04-27T12:54:05.973Z,15.90
2019-04-27T12:56:28.955Z,16.00
2019-04-27T12:58:36.532Z,15.90
2019-04-27T13:00:46.093Z,15.90
2019-04-27T13:02:50.928Z,15.90
2019-04-27T13:04:56.759Z,15.80
2019-04-27T13:07:01.709Z,15.80
2019-04-27T13:09:07.186Z,15.70
2019-04-27T13:11:12.014Z,15.70
2019-04-27T13:13:16.779Z,15.60
2019-04-27T13:15:21.483Z,15.50
2019-04-27T13:17:26.554Z,15.30
2019-04-27T13:19:31.655Z,15.20
2019-04-27T13:21:36.596Z,15.10
2019-04-27T13:23:41.533Z,14.90
2019-04-27T13:25:46.314Z,14.80
2019-04-27T13:27:51.171Z,14.70
2019-04-27T13:29:57.508Z,14.60
2019-04-27T13:32:02.274Z,14.50
2019-04-27T13:34:07.040Z,14.50
2019-04-27T13:36:11.834Z,14.40
2019-04-27T13:38:18.178Z,14.40
2019-04-27T13:40:37.205Z,14.40
2019-04-27T13:42:43.691Z,14.30
2019-04-27T13:44:48.455Z,14.30
2019-04-27T13:47:10.984Z,14.30
2019-04-27T13:49:29.412Z,14.30
2019-04-27T13:51:38.718Z,14.20
2019-04-27T13:53:43.533Z,14.20
2019-04-27T13:55:48.552Z,14.30
2019-04-27T13:57:53.479Z,14.30
2019-04-27T13:59:58.273Z,14.30
2019-04-27T14:02:03.225Z,14.40
2019-04-27T14:04:08.158Z,14.50
2019-04-27T14:06:12.930Z,14.40
2019-04-27T14:08:17.743Z,14.50
2019-04-27T14:10:22.443Z,14.50
2019-04-27T14:12:28.506Z,14.50
2019-04-27T14:14:33.420Z,14.60
2019-04-27T14:16:39.210Z,14.50
2019-04-27T14:18:45.240Z,14.60
2019-04-27T14:20:51.082Z,14.60
2019-04-27T14:23:03.274Z,14.60
2019-04-27T14:25:09.922Z,14.70
2019-04-27T14:27:20.555Z,14.80
2019-04-27T14:29:31.092Z,14.80
2019-04-27T14:31:39.770Z,14.80
2019-04-27T14:33:49.060Z,14.80
2019-04-27T14:35:56.914Z,14.90
2019-04-27T14:38:04.916Z,14.90
2019-04-27T14:40:15.263Z,14.90
2019-04-27T14:42:24.982Z,15.00
2019-04-27T14:44:32.434Z,15.00
2019-04-27T14:46:41.142Z,15.00
2019-04-27T14:48:52.922Z,15.00
2019-04-27T14:51:00.312Z,15.10
2019-04-27T14:53:08.800Z,15.10
2019-04-27T14:55:16.811Z,15.10
2019-04-27T14:57:23.902Z,15.10
2019-04-27T14:59:30.264Z,15.10
2019-04-27T15:01:38.146Z,15.10
2019-04-27T15:03:45.660Z,15.20
2019-04-27T15:05:53.766Z,15.20
2019-04-27T15:08:07.486Z,15.20
2019-04-27T15:10:10.833Z,15.20
2019-04-27T15:12:15.876Z,15.20
2019-04-27T15:14:23.948Z,15.20
2019-04-27T15:16:31.578Z,15.20
2019-04-27T15:18:43.766Z,15.20
2019-04-27T15:20:48.885Z,15.20
2019-04-27T15:22:56.990Z,15.20
2019-04-27T15:25:12.407Z,15.10
2019-04-27T15:27:08.313Z,15.10
2019-04-27T15:29:14.416Z,15.10
2019-04-27T15:31:30.070Z,15.00
2019-04-27T15:33:54.641Z,14.90
2019-04-27T15:36:00.708Z,14.90
2019-04-27T15:38:19.140Z,14.80
2019-04-27T15:40:31.308Z,14.70
2019-04-27T15:42:53.518Z,14.70
2019-04-27T15:44:58.558Z,14.60
2019-04-27T15:47:07.844Z,14.60
2019-04-27T15:49:11.309Z,14.60
2019-04-27T15:51:20.026Z,14.50
2019-04-27T15:53:23.431Z,14.50
2019-04-27T15:55:34.461Z,14.40
2019-04-27T15:57:35.692Z,14.40
2019-04-27T15:59:41.113Z,14.40
2019-04-27T16:01:45.942Z,14.30
2019-04-27T16:03:52.163Z,14.30
2019-04-27T16:05:58.706Z,14.30
2019-04-27T16:08:06.211Z,14.20
2019-04-27T16:10:10.011Z,14.20
2019-04-27T16:12:15.656Z,14.20
2019-04-27T16:14:21.454Z,14.20
2019-04-27T16:16:29.213Z,14.20
2019-04-27T16:18:32.774Z,14.20
2019-04-27T16:20:38.107Z,14.20
2019-04-27T16:22:42.977Z,14.20
2019-04-27T16:24:49.411Z,14.20
2019-04-27T16:26:56.068Z,14.20
2019-04-27T16:29:00.584Z,14.20
2019-04-27T16:31:05.270Z,14.20
2019-04-27T16:33:09.957Z,14.20
2019-04-27T16:35:19.476Z,14.20
2019-04-27T16:37:28.680Z,14.20
2019-04-27T16:39:33.366Z,14.20
2019-04-27T16:41:38.909Z,14.20
2019-04-27T16:43:45.747Z,14.20
2019-04-27T16:45:50.633Z,14.20
2019-04-27T16:47:56.655Z,14.20
2019-04-27T16:50:01.816Z,14.20
2019-04-27T16:52:11.612Z,14.20
2019-04-27T16:54:17.496Z,14.20
2019-04-27T16:56:22.930Z,14.20
2019-04-27T16:58:28.562Z,14.20
2019-04-27T17:00:33.681Z,14.20
2019-04-27T17:02:40.192Z,14.20
2019-04-27T17:04:52.068Z,14.20
2019-04-27T17:06:51.438Z,14.30
2019-04-27T17:08:57.271Z,14.30
2019-04-27T17:11:08.298Z,14.30
2019-04-27T17:13:14.308Z,14.30
2019-04-27T17:15:35.765Z,14.30
2019-04-27T17:17:59.246Z,14.40
2019-04-27T17:20:05.420Z,14.40
2019-04-27T17:22:10.479Z,14.40
2019-04-27T17:24:18.177Z,14.40
2019-04-27T17:26:24.152Z,14.40
2019-04-27T17:28:39.567Z,14.40
2019-04-27T17:30:45.148Z,14.40
2019-04-27T17:32:51.613Z,14.40
2019-04-27T17:35:02.080Z,14.40
2019-04-27T17:37:02.722Z,14.30
2019-04-27T17:39:08.727Z,14.30
2019-04-27T17:41:13.417Z,14.30
2019-04-27T17:43:18.751Z,14.30
2019-04-27T17:45:23.515Z,14.30
2019-04-27T17:47:29.806Z,14.20
2019-04-27T17:49:34.795Z,14.20
2019-04-27T17:51:42.990Z,14.20
2019-04-27T17:53:45.882Z,14.20
2019-04-27T17:55:50.625Z,14.20
2019-04-27T17:58:00.545Z,14.10
2019-04-27T18:00:03.756Z,14.10
2019-04-27T18:02:10.378Z,14.10
2019-04-27T18:04:15.145Z,14.10
2019-04-27T18:06:24.527Z,14.10
2019-04-27T18:08:29.124Z,14.10
2019-04-27T18:10:33.938Z,14.00
2019-04-27T18:12:40.178Z,14.00
2019-04-27T18:14:47.975Z,14.00
2019-04-27T18:16:52.851Z,14.00
2019-04-27T18:19:07.775Z,14.00
2019-04-27T18:21:09.875Z,14.00
2019-04-27T18:23:16.241Z,14.00
2019-04-27T18:25:50.801Z,14.00
2019-04-27T18:27:58.282Z,13.90
2019-04-27T18:30:10.541Z,13.90
2019-04-27T18:32:15.486Z,13.90
2019-04-27T18:34:20.215Z,13.90
2019-04-27T18:36:24.910Z,13.90
2019-04-27T18:38:30.921Z,13.90
2019-04-27T18:40:36.114Z,13.90
2019-04-27T18:42:40.890Z,13.80
2019-04-27T18:44:45.603Z,13.90
2019-04-27T18:46:53.778Z,13.80
2019-04-27T18:48:59.623Z,13.80
2019-04-27T18:51:14.582Z,13.80
2019-04-27T18:53:29.834Z,13.80
2019-04-27T18:55:34.513Z,13.80
2019-04-27T18:57:39.205Z,13.80
2019-04-27T18:59:44.002Z,13.70
2019-04-27T19:01:49.030Z,13.70
2019-04-27T19:03:53.812Z,13.70
2019-04-27T19:05:58.606Z,13.70
2019-04-27T19:08:03.991Z,13.70
2019-04-27T19:10:09.014Z,13.70
2019-04-27T19:12:14.049Z,13.70
2019-04-27T19:14:18.997Z,13.60
2019-04-27T19:16:23.800Z,13.60
2019-04-27T19:18:28.645Z,13.60
2019-04-27T19:20:33.450Z,13.60
2019-04-27T19:22:38.572Z,13.60
2019-04-27T19:24:43.480Z,13.60
2019-04-27T19:26:49.917Z,13.60
2019-04-27T19:29:02.063Z,13.60
2019-04-27T19:31:26.294Z,13.60
2019-04-27T19:33:31.089Z,13.60
2019-04-27T19:35:37.861Z,13.60
2019-04-27T19:37:42.276Z,13.60
2019-04-27T19:39:48.177Z,13.60
2019-04-27T19:42:00.231Z,13.60
2019-04-27T19:44:00.972Z,13.50
2019-04-27T19:46:05.822Z,13.60
2019-04-27T19:48:10.688Z,13.50
2019-04-27T19:50:15.384Z,13.50
2019-04-27T19:52:22.554Z,13.50
2019-04-27T19:54:29.864Z,13.50
2019-04-27T19:56:32.994Z,13.50
2019-04-27T19:58:39.324Z,13.50
2019-04-27T20:00:45.656Z,13.50
2019-04-27T20:02:52.150Z,13.50
2019-04-27T20:04:58.845Z,13.50
2019-04-27T20:07:03.984Z,13.50
2019-04-27T20:09:19.244Z,13.50
2019-04-27T20:11:24.074Z,13.50
2019-04-27T20:13:28.937Z,13.50
2019-04-27T20:15:35.342Z,13.50
2019-04-27T20:17:40.874Z,13.50
2019-04-27T20:19:45.797Z,13.50
2019-04-27T20:21:51.824Z,13.50
2019-04-27T20:23:57.661Z,13.50
2019-04-27T20:26:03.955Z,13.50
2019-04-27T20:28:09.070Z,13.50
2019-04-27T20:30:14.144Z,13.50
2019-04-27T20:32:21.514Z,13.50
2019-04-27T20:34:45.850Z,13.50
2019-04-27T20:36:52.895Z,13.50
2019-04-27T20:38:58.948Z,13.50
2019-04-27T20:41:05.073Z,13.50
2019-04-27T20:43:11.652Z,13.50
2019-04-27T20:45:16.763Z,13.50
2019-04-27T20:47:21.739Z,13.50
2019-04-27T20:49:26.542Z,13.50
2019-04-27T20:51:51.002Z,13.50
2019-04-27T20:53:57.522Z,13.60
2019-04-27T20:56:02.246Z,13.50
2019-04-27T20:58:06.928Z,13.50
2019-04-27T21:00:13.091Z,13.50
2019-04-27T21:02:33.475Z,13.50
2019-04-27T21:04:39.805Z,13.50
2019-04-27T21:06:46.218Z,13.50
2019-04-27T21:08:51.457Z,13.50
2019-04-27T21:10:56.383Z,13.50
2019-04-27T21:13:01.151Z,13.50
2019-04-27T21:15:06.719Z,13.50
2019-04-27T21:17:12.562Z,13.50
2019-04-27T21:19:18.589Z,13.50
2019-04-27T21:21:23.468Z,13.50
2019-04-27T21:23:28.254Z,13.40
2019-04-27T21:25:33.683Z,13.40
2019-04-27T21:27:41.103Z,13.40
2019-04-27T21:29:48.251Z,13.40
2019-04-27T21:31:54.100Z,13.40
2019-04-27T21:33:59.585Z,13.40
2019-04-27T21:36:04.307Z,13.40
2019-04-27T21:38:09.088Z,13.40
2019-04-27T21:40:17.773Z,13.40
2019-04-27T21:42:22.452Z,13.30
2019-04-27T21:44:27.151Z,13.30
2019-04-27T21:46:34.766Z,13.30
2019-04-27T21:48:38.278Z,13.30
2019-04-27T21:50:42.967Z,13.20
2019-04-27T21:52:52.353Z,13.20
2019-04-27T21:54:57.054Z,13.20
2019-04-27T21:57:02.244Z,13.20
2019-04-27T21:59:06.952Z,13.20
2019-04-27T22:01:17.000Z,13.20
2019-04-27T22:03:23.670Z,13.10
2019-04-27T22:05:28.394Z,13.10
2019-04-27T22:07:33.091Z,13.10
2019-04-27T22:09:37.777Z,13.10
2019-04-27T22:11:42.497Z,13.10
2019-04-27T22:13:47.209Z,13.10
2019-04-27T22:15:52.061Z,13.10
2019-04-27T22:17:57.959Z,13.10
2019-04-27T22:20:03.201Z,13.00
2019-04-27T22:22:24.217Z,13.00
2019-04-27T22:24:33.223Z,13.00
2019-04-27T22:26:37.983Z,13.00
2019-04-27T22:28:47.081Z,13.00
2019-04-27T22:30:49.085Z,13.00
2019-04-27T22:32:53.813Z,13.00
2019-04-27T22:34:58.524Z,13.00
2019-04-27T22:37:03.391Z,13.00
2019-04-27T22:39:11.613Z,13.00
2019-04-27T22:41:17.932Z,13.00
2019-04-27T22:43:41.274Z,13.00
2019-04-27T22:45:46.843Z,12.90
2019-04-27T22:47:51.605Z,12.90
2019-04-27T22:49:56.313Z,12.90
2019-04-27T22:52:01.499Z,12.90
2019-04-27T22:54:06.315Z,12.90
2019-04-27T22:56:18.651Z,12.90
2019-04-27T22:58:23.498Z,12.90
2019-04-27T23:00:42.008Z,12.90
2019-04-27T23:02:49.427Z,12.90
2019-04-27T23:04:55.787Z,12.90
2019-04-27T23:07:00.664Z,12.80
2019-04-27T23:09:07.287Z,12.80
2019-04-27T23:11:13.672Z,12.80
2019-04-27T23:13:18.429Z,12.80
2019-04-27T23:15:24.765Z,12.80
2019-04-27T23:17:47.836Z,12.80
2019-04-27T23:19:52.533Z,12.80
2019-04-27T23:21:58.386Z,12.80
2019-04-27T23:24:03.113Z,12.80
2019-04-27T23:26:07.806Z,12.80
2019-04-27T23:28:12.502Z,12.70
2019-04-27T23:30:17.994Z,12.70
2019-04-27T23:32:27.301Z,12.70
2019-04-27T23:34:32.083Z,12.70
2019-04-27T23:36:36.982Z,12.70
2019-04-27T23:38:41.722Z,12.70
2019-04-27T23:40:46.481Z,12.70
2019-04-27T23:42:51.717Z,12.70
2019-04-27T23:44:56.630Z,12.70
2019-04-27T23:47:01.322Z,12.70
2019-04-27T23:49:06.049Z,12.60
2019-04-27T23:51:21.416Z,12.70
2019-04-27T23:53:27.986Z,12.70
2019-04-27T23:55:39.640Z,12.60
2019-04-27T23:57:44.506Z,12.60
2019-04-27T23:59:49.274Z,12.60
